Language: 


Des rapports , des résumés tant et plus, au choix de chacun....


Données statistiques de la station
Quotidien Rapport Janvier 30, 2017 Unités:  Anglais    Métrique   les deux
« Précédent Jour
Suivant Jour »
Quotidien Hebdomadaire Mensuel Annuel Actuel
  Haut: Bas: Moyen:
Température: 47.7 °F 42.3 °F 44.8 °F
Pt de rosée: 46.9 °F 41.7 °F 44.1 °F
Humidité: 98 % 97 % 97 %
Vitesse du vent: 14.5 mph 0 mph 4 mph
Rafales: 19.7 mph - -
Vent:- - SW
Pression: 29.9 in 29.8 in -
Précipitation: 0.1 in    
Historical Graphs
 
 
Données statistiques pour Janvier 30, 2017
Heure Température Point de rosée Pression Vent Vitesse du vent Refales Humidité Pluie (taux horaire)
00:03 43.5 °F 43.2 °F 29.9 in SSW 12.3 mph 14.8 mph 98 % 0.08 in
00:08 43.9 °F 43.3 °F 29.9 in South 10.5 mph 17.2 mph 98 % 0.08 in
00:13 43.9 °F 43.3 °F 29.9 in SSW 10.5 mph 17.2 mph 98 % 0.09 in
00:18 43.9 °F 43.3 °F 29.9 in South 10.5 mph 14.8 mph 98 % 0.09 in
00:23 43.9 °F 43.3 °F 29.8 in SSE 10.5 mph 14.1 mph 98 % 0.06 in
00:28 44.1 °F 43.5 °F 29.8 in South 8.1 mph 14.5 mph 98 % 0.06 in
00:33 44.1 °F 43.5 °F 29.8 in SW 6.3 mph 14.5 mph 98 % 0.06 in
00:38 44.1 °F 43.5 °F 29.8 in SSW 8.5 mph 17 mph 98 % 0.07 in
00:43 44.1 °F 43.5 °F 29.8 in SSW 8.5 mph 17 mph 98 % 0.07 in
00:48 44.2 °F 43.5 °F 29.8 in SSW 7.6 mph 14.3 mph 98 % 0.07 in
00:53 44.2 °F 43.9 °F 29.8 in South 8.7 mph 17.2 mph 98 % 0.07 in
00:58 44.2 °F 43.9 °F 29.8 in South 10.3 mph 17.4 mph 98 % 0.07 in
01:03 44.2 °F 43.9 °F 29.8 in SSW 5.6 mph 17.4 mph 98 % 0.03 in
01:08 44.4 °F 44.1 °F 29.8 in South 6.3 mph 12.8 mph 98 % 0.03 in
01:13 44.4 °F 44.1 °F 29.8 in SSW 14.5 mph 14.5 mph 98 % 0.01 in
01:18 44.8 °F 44.2 °F 29.8 in SSW 13.2 mph 14.5 mph 98 % 0.01 in
01:23 44.8 °F 44.2 °F 29.8 in WSW 11 mph 14.8 mph 98 % 0.01 in
01:28 44.8 °F 44.2 °F 29.8 in SSW 7.8 mph 14.8 mph 98 % 0.01 in
01:33 44.8 °F 44.2 °F 29.8 in South 9.8 mph 13.2 mph 98 % 0 in
01:38 44.8 °F 44.2 °F 29.8 in SSW 11 mph 15.9 mph 98 % 0 in
01:43 45 °F 44.2 °F 29.8 in South 10.5 mph 17 mph 98 % 0 in
01:48 45 °F 44.2 °F 29.8 in South 5.8 mph 19.7 mph 98 % 0 in
01:53 45 °F 44.1 °F 29.8 in South 10.7 mph 19.7 mph 97 % 0 in
01:58 45 °F 44.1 °F 29.8 in SSW 9.8 mph 17.4 mph 97 % 0 in
02:03 45 °F 44.1 °F 29.8 in SW 10.5 mph 15.2 mph 97 % 0 in
02:08 45 °F 44.1 °F 29.8 in SSW 12.3 mph 15.2 mph 97 % 0 in
02:13 45 °F 44.1 °F 29.8 in SSW 12.8 mph 15.2 mph 97 % 0 in
02:18 45 °F 44.1 °F 29.8 in West 12.5 mph 14.8 mph 97 % 0 in
02:23 45 °F 44.1 °F 29.8 in SW 9.4 mph 15.2 mph 97 % 0 in
02:28 45 °F 44.1 °F 29.8 in SW 13.2 mph 15.2 mph 97 % 0 in
02:33 45 °F 44.1 °F 29.8 in SSW 10.5 mph 17 mph 97 % 0 in
02:38 45 °F 44.1 °F 29.8 in SSW 12.8 mph 17 mph 97 % 0 in
02:43 45 °F 44.1 °F 29.8 in SSW 13 mph 15.2 mph 97 % 0 in
02:48 45 °F 44.1 °F 29.8 in WSW 10.5 mph 16.3 mph 97 % 0 in
02:53 45.1 °F 44.2 °F 29.8 in WSW 12.8 mph 16.3 mph 97 % 0 in
02:58 45.1 °F 44.2 °F 29.8 in SW 11 mph 15.2 mph 97 % 0 in
03:03 45 °F 44.1 °F 29.8 in SW 6 mph 14.8 mph 97 % 0 in
03:08 45 °F 44.1 °F 29.8 in WSW 10.3 mph 15.9 mph 97 % 0 in
03:13 45 °F 44.1 °F 29.8 in WSW 10.1 mph 15.9 mph 97 % 0 in
03:14 45 °F 44.1 °F 29.8 in SSW 13.2 mph 15.9 mph 97 % 0 in
03:19 45 °F 44.1 °F 29.8 in SW 8.1 mph 14.5 mph 97 % 0 in
03:24 45 °F 44.1 °F 29.8 in SSW 10.3 mph 13.2 mph 97 % 0 in
03:29 45 °F 44.1 °F 29.8 in SSW 8.7 mph 12.8 mph 97 % 0 in
03:34 45 °F 44.1 °F 29.8 in SSW 10.3 mph 12.8 mph 97 % 0 in
03:39 45 °F 44.1 °F 29.8 in SSW 8.5 mph 11.4 mph 97 % 0 in
03:44 45 °F 44.1 °F 29.8 in WSW 6.3 mph 13 mph 97 % 0 in
03:49 45 °F 44.1 °F 29.8 in SSW 6.5 mph 15.2 mph 97 % 0 in
03:54 45 °F 44.1 °F 29.8 in SSW 8.1 mph 15.2 mph 97 % 0 in
03:59 45 °F 44.1 °F 29.8 in SSW 9.8 mph 13.2 mph 97 % 0 in
04:04 45.1 °F 44.2 °F 29.8 in SW 6.5 mph 12.5 mph 97 % 0 in
04:09 45.1 °F 44.2 °F 29.8 in SSW 8.5 mph 11.2 mph 97 % 0 in
04:15 45.1 °F 44.2 °F 29.8 in SSW 10.3 mph 11.2 mph 97 % 0 in
04:20 45.1 °F 44.2 °F 29.8 in SSW 5.8 mph 11 mph 97 % 0 in
04:24 45.1 °F 44.2 °F 29.8 in WSW 12.1 mph 12.3 mph 97 % 0 in
04:25 45.1 °F 44.2 °F 29.8 in SSW 6.5 mph 12.3 mph 97 % 0 in
04:27 45.1 °F 44.2 °F 29.8 in WSW 6.3 mph 12.3 mph 97 % 0 in
04:28 45.1 °F 44.2 °F 29.8 in SW 4 mph 12.3 mph 97 % 0 in
04:32 45.1 °F 44.2 °F 29.8 in SSW 6.5 mph 12.3 mph 97 % 0 in
04:37 45.1 °F 44.2 °F 29.8 in SW 7.8 mph 11 mph 97 % 0 in
04:42 45.1 °F 44.2 °F 29.8 in South 6.3 mph 10.3 mph 97 % 0 in
04:47 45.1 °F 44.2 °F 29.8 in SSW 8.1 mph 10.1 mph 97 % 0 in
04:52 45.1 °F 44.2 °F 29.8 in SW 5.8 mph 10.1 mph 97 % 0 in
04:57 45.1 °F 44.2 °F 29.8 in SSW 7.6 mph 9.8 mph 97 % 0 in
05:02 45.1 °F 44.2 °F 29.8 in South 9.8 mph 13 mph 97 % 0 in
05:07 45.1 °F 44.2 °F 29.8 in South 7.6 mph 13 mph 97 % 0 in
05:12 45.1 °F 44.2 °F 29.8 in SSW 6.3 mph 11 mph 97 % 0 in
05:17 45.1 °F 44.2 °F 29.8 in SSW 7.4 mph 10.7 mph 97 % 0 in
05:22 45.1 °F 44.2 °F 29.8 in SSW 9.6 mph 10.7 mph 97 % 0 in
05:27 45.1 °F 44.2 °F 29.8 in SSW 4.9 mph 10.7 mph 97 % 0 in
05:32 45.1 °F 44.2 °F 29.8 in South 5.8 mph 10.7 mph 97 % 0 in
05:37 45.1 °F 44.2 °F 29.8 in SW 5.4 mph 10.3 mph 97 % 0 in
05:42 45.1 °F 44.2 °F 29.8 in SSW 6.5 mph 10.5 mph 97 % 0 in
05:47 45.1 °F 44.2 °F 29.8 in SW 5.6 mph 10.5 mph 97 % 0 in
05:52 45.1 °F 44.2 °F 29.8 in SSW 5.6 mph 8.5 mph 97 % 0 in
05:57 45 °F 44.1 °F 29.8 in SSW 4.9 mph 8.5 mph 97 % 0 in
06:02 45 °F 44.1 °F 29.8 in South 5.6 mph 7.2 mph 97 % 0 in
06:07 45 °F 44.1 °F 29.8 in South 2 mph 5.8 mph 97 % 0 in
06:12 44.8 °F 43.9 °F 29.8 in Calm   6 mph 97 % 0 in
06:17 44.8 °F 43.9 °F 29.8 in SSW 3.8 mph 8.5 mph 97 % 0 in
06:22 44.8 °F 43.9 °F 29.8 in South 3.8 mph 8.5 mph 97 % 0 in
06:27 44.4 °F 43.7 °F 29.8 in SW 6.7 mph 6.7 mph 97 % 0 in
06:32 44.4 °F 43.7 °F 29.8 in SW 3.8 mph 6.7 mph 97 % 0 in
06:37 44.4 °F 43.7 °F 29.8 in WSW 4.3 mph 6.5 mph 97 % 0 in
06:42 44.4 °F 43.7 °F 29.8 in SSW 3.8 mph 6.5 mph 97 % 0 in
06:47 44.4 °F 43.7 °F 29.8 in Calm   5.6 mph 97 % 0 in
06:52 44.4 °F 43.7 °F 29.8 in WSW 5.4 mph 5.6 mph 97 % 0 in
06:57 44.4 °F 43.7 °F 29.8 in SW 5.4 mph 7.6 mph 97 % 0 in
07:02 44.8 °F 43.9 °F 29.8 in SW 4.7 mph 7.6 mph 97 % 0 in
07:07 44.8 °F 43.9 °F 29.8 in South 3.4 mph 6.5 mph 97 % 0 in
07:12 44.8 °F 43.9 °F 29.8 in SSW 4.9 mph 6.5 mph 97 % 0 in
07:17 44.8 °F 43.9 °F 29.8 in South 4.3 mph 6.5 mph 97 % 0 in
07:22 44.8 °F 43.9 °F 29.8 in SW 2.7 mph 6.3 mph 97 % 0 in
07:27 44.8 °F 43.9 °F 29.8 in SW 3.6 mph 6.3 mph 97 % 0 in
07:32 44.8 °F 43.9 °F 29.8 in South 5.8 mph 6.3 mph 97 % 0 in
07:37 44.8 °F 43.9 °F 29.8 in SSW 3.1 mph 6.3 mph 97 % 0 in
07:42 44.8 °F 43.9 °F 29.8 in SSW 3.4 mph 6.5 mph 97 % 0 in
07:47 44.8 °F 43.9 °F 29.8 in SSW 4 mph 6.5 mph 97 % 0 in
07:52 44.8 °F 43.9 °F 29.8 in SW 2.9 mph 6.5 mph 97 % 0 in
07:57 45 °F 44.1 °F 29.8 in West 6.3 mph 6.5 mph 97 % 0 in
08:02 45 °F 44.1 °F 29.8 in SW 4.7 mph 6.5 mph 97 % 0 in
08:07 45 °F 44.1 °F 29.8 in WSW 5.4 mph 8.5 mph 97 % 0.01 in
08:12 45 °F 44.1 °F 29.8 in WSW 6.3 mph 8.5 mph 97 % 0.01 in
08:17 45 °F 44.1 °F 29.8 in WSW 4.9 mph 7.4 mph 97 % 0.01 in
08:22 45.1 °F 44.2 °F 29.8 in SW 4.7 mph 7.4 mph 97 % 0.01 in
08:27 45.1 °F 44.2 °F 29.8 in WSW 4.3 mph 7.4 mph 97 % 0.01 in
08:32 45.1 °F 44.2 °F 29.8 in SW 4.7 mph 7.4 mph 97 % 0.01 in
08:37 45.1 °F 44.2 °F 29.8 in SSW 6.3 mph 8.1 mph 97 % 0.01 in
08:42 45.1 °F 44.8 °F 29.8 in WSW 4 mph 8.1 mph 98 % 0.01 in
08:47 45.1 °F 44.8 °F 29.8 in SSW 4 mph 7.6 mph 98 % 0.01 in
08:52 45.1 °F 44.8 °F 29.8 in SW 3.6 mph 5.8 mph 98 % 0.01 in
08:57 45.3 °F 45 °F 29.8 in WSW 5.6 mph 6.5 mph 98 % 0.01 in
09:02 45.3 °F 45 °F 29.8 in Calm   6.5 mph 98 % 0.01 in
09:07 45.7 °F 45.1 °F 29.8 in WSW 3.8 mph 7.2 mph 98 % 0 in
09:12 45.7 °F 45.1 °F 29.8 in SW 3.6 mph 7.2 mph 98 % 0 in
09:17 45.7 °F 45.1 °F 29.8 in WSW 4.3 mph 6.9 mph 98 % 0 in
09:22 45.9 °F 45.1 °F 29.8 in SSW 4.9 mph 6.9 mph 98 % 0 in
09:27 45.9 °F 45.1 °F 29.8 in SW 4.9 mph 6.5 mph 98 % 0 in
09:32 45.9 °F 45.3 °F 29.8 in SSW 5.8 mph 7.2 mph 98 % 0 in
09:37 46 °F 45.3 °F 29.8 in SW 6.5 mph 7.2 mph 97 % 0 in
09:42 46 °F 45.3 °F 29.8 in WSW 8.5 mph 8.5 mph 97 % 0 in
09:47 46.2 °F 45.5 °F 29.8 in SW 5.4 mph 8.5 mph 97 % 0 in
09:52 46.2 °F 45.5 °F 29.8 in SW 6.3 mph 7.8 mph 97 % 0 in
09:57 46.6 °F 45.7 °F 29.8 in WSW 4.9 mph 7.8 mph 97 % 0 in
10:02 46.6 °F 45.7 °F 29.8 in WSW 4 mph 7.6 mph 97 % 0 in
10:07 46.6 °F 45.7 °F 29.8 in WSW 4.3 mph 6.5 mph 97 % 0 in
10:12 46.6 °F 45.9 °F 29.8 in WSW 5.4 mph 6.5 mph 97 % 0 in
10:17 46.6 °F 45.9 °F 29.8 in WSW 5.8 mph 8.1 mph 97 % 0 in
10:22 46.8 °F 46 °F 29.8 in West 4.9 mph 8.1 mph 97 % 0 in
10:27 46.8 °F 46 °F 29.8 in WSW 2.7 mph 5.8 mph 97 % 0 in
10:32 46.8 °F 46 °F 29.8 in Calm   5.4 mph 97 % 0 in
10:34 46.8 °F 46 °F 29.8 in West 2.5 mph 4.9 mph 97 % 0 in
10:39 46.9 °F 46.2 °F 29.8 in Calm   3.8 mph 97 % 0 in
10:44 46.9 °F 46.2 °F 29.8 in Calm   3.8 mph 97 % 0 in
10:49 47.1 °F 46.4 °F 29.8 in Calm   3.1 mph 97 % 0 in
10:54 47.3 °F 46.6 °F 29.8 in Calm   3.1 mph 97 % 0 in
10:59 47.3 °F 46.6 °F 29.8 in NNW 5.4 mph 5.4 mph 97 % 0 in
11:05 47.7 °F 46.9 °F 29.8 in West 2.2 mph 6.5 mph 97 % 0 in
11:10 47.7 °F 46.9 °F 29.8 in NNE 4.3 mph 7.2 mph 97 % 0 in
11:15 47.1 °F 46.4 °F 29.8 in Calm   8.7 mph 97 % 0 in
11:20 46.9 °F 46.2 °F 29.8 in WNW 7.2 mph 8.7 mph 97 % 0 in
11:21 46.9 °F 46.2 °F 29.8 in North 4.3 mph 8.7 mph 97 % 0 in
11:26 46.8 °F 46 °F 29.8 in NW 5.6 mph 8.7 mph 97 % 0 in
11:31 46.8 °F 46 °F 29.8 in Calm   8.7 mph 97 % 0 in
11:36 46.8 °F 46 °F 29.8 in Calm   6.5 mph 97 % 0 in
11:41 46.8 °F 46 °F 29.8 in NNW 4 mph 6 mph 97 % 0 in
11:46 46.8 °F 46 °F 29.8 in North 7.4 mph 7.4 mph 97 % 0 in
11:51 46.8 °F 46 °F 29.8 in NNW 3.4 mph 7.4 mph 97 % 0 in
11:56 46.6 °F 45.9 °F 29.8 in NNE 3.1 mph 6.9 mph 97 % 0 in
12:01 46.6 °F 45.9 °F 29.8 in WNW 2.9 mph 5.6 mph 97 % 0 in
12:06 46.6 °F 45.9 °F 29.8 in North 2.5 mph 5.6 mph 97 % 0 in
12:11 46.6 °F 45.9 °F 29.8 in NNE 3.4 mph 5.4 mph 97 % 0 in
12:16 46.6 °F 45.9 °F 29.8 in NNE 3.6 mph 6 mph 97 % 0 in
12:21 46.6 °F 45.9 °F 29.8 in NW 5.8 mph 6 mph 97 % 0 in
12:26 46.6 °F 45.9 °F 29.8 in NNW 5.8 mph 6.3 mph 97 % 0 in
12:31 46.6 °F 45.7 °F 29.8 in NNW 3.6 mph 6.3 mph 97 % 0 in
12:36 46.6 °F 45.7 °F 29.8 in North 2.5 mph 6.3 mph 97 % 0 in
12:41 46.6 °F 45.7 °F 29.9 in Calm   6.3 mph 97 % 0 in
12:46 46.6 °F 45.7 °F 29.9 in NNW 4.9 mph 6.3 mph 97 % 0 in
12:51 46.6 °F 45.7 °F 29.9 in Calm   5.6 mph 97 % 0.02 in
12:56 46.2 °F 45.5 °F 29.9 in North 3.1 mph 4.9 mph 97 % 0.02 in
13:01 46.2 °F 45.5 °F 29.9 in NNE 3.8 mph 6.3 mph 97 % 0.02 in
13:06 46 °F 45.3 °F 29.9 in NNE 3.8 mph 6.5 mph 97 % 0.02 in
13:12 45.9 °F 45.1 °F 29.9 in North 3.4 mph 6.5 mph 97 % 0.02 in
13:17 45.9 °F 45.1 °F 29.9 in NW 3.6 mph 6.5 mph 97 % 0.02 in
13:22 45.9 °F 45.1 °F 29.9 in Calm   6.5 mph 97 % 0.02 in
13:27 45.9 °F 45.1 °F 29.9 in NNW 2.9 mph 5.6 mph 97 % 0.02 in
13:32 45.9 °F 45 °F 29.9 in North 4.3 mph 7.4 mph 97 % 0.02 in
13:37 45.7 °F 44.8 °F 29.9 in NNW 2.7 mph 7.4 mph 97 % 0.02 in
13:42 45.7 °F 44.8 °F 29.9 in North 5.4 mph 7.6 mph 97 % 0.02 in
13:47 45.3 °F 44.6 °F 29.9 in North 5.4 mph 8.1 mph 97 % 0 in
13:52 45.3 °F 44.6 °F 29.9 in NNE 3.8 mph 8.1 mph 97 % 0 in
13:57 45.1 °F 44.4 °F 29.9 in NW 5.6 mph 7.4 mph 97 % 0 in
14:02 45.1 °F 44.4 °F 29.9 in Calm   6.5 mph 97 % 0 in
14:08 45.1 °F 44.4 °F 29.9 in North 5.4 mph 7.6 mph 97 % 0 in
14:13 45.1 °F 44.2 °F 29.9 in North 3.6 mph 7.6 mph 97 % 0 in
14:18 45 °F 44.1 °F 29.9 in NNW 3.6 mph 7.6 mph 97 % 0 in
14:23 45 °F 44.1 °F 29.9 in NNW 3.1 mph 10.1 mph 97 % 0 in
14:28 44.8 °F 43.9 °F 29.9 in NW 4.3 mph 10.1 mph 97 % 0 in
14:33 44.8 °F 43.9 °F 29.9 in NNW 4.3 mph 8.7 mph 97 % 0 in
14:38 45 °F 44.1 °F 29.9 in WNW 2.7 mph 5.6 mph 97 % 0 in
14:43 45 °F 44.1 °F 29.9 in West 2.5 mph 5.6 mph 97 % 0 in
14:48 45.1 °F 44.2 °F 29.9 in Calm   3.4 mph 97 % 0 in
14:53 45.1 °F 44.8 °F 29.9 in Calm   3.4 mph 98 % 0 in
14:58 45.1 °F 44.8 °F 29.9 in Calm   3.8 mph 98 % 0 in
15:03 45.1 °F 44.8 °F 29.9 in Calm   3.8 mph 98 % 0 in
15:08 45.1 °F 44.4 °F 29.9 in Calm   3.4 mph 97 % 0 in
15:13 45.1 °F 44.2 °F 29.9 in Calm   3.4 mph 97 % 0 in
15:18 45.1 °F 44.2 °F 29.9 in WNW 2.7 mph 4.3 mph 97 % 0 in
15:23 45.1 °F 44.2 °F 29.9 in North 1.1 mph 4.3 mph 97 % 0 in
15:28 45.1 °F 44.2 °F 29.9 in South 2.2 mph 3.8 mph 97 % 0 in
15:33 45 °F 44.1 °F 29.9 in WNW 4.3 mph 7.2 mph 97 % 0 in
15:38 45 °F 44.1 °F 29.9 in WNW 3.4 mph 7.2 mph 97 % 0 in
15:43 45.1 °F 44.2 °F 29.9 in Calm   4.3 mph 97 % 0 in
15:48 45.1 °F 44.4 °F 29.9 in Calm   3.4 mph 97 % 0 in
15:53 45.1 °F 44.4 °F 29.9 in Calm   3.1 mph 97 % 0 in
15:58 45.3 °F 44.6 °F 29.9 in Calm   2.7 mph 97 % 0 in
16:03 45.3 °F 44.6 °F 29.9 in WNW 3.6 mph 3.6 mph 97 % 0 in
16:08 45.3 °F 44.6 °F 29.9 in Calm   3.8 mph 97 % 0 in
16:13 45.3 °F 44.6 °F 29.9 in NW 2.9 mph 3.8 mph 97 % 0 in
16:18 45.3 °F 44.6 °F 29.9 in WNW 2.2 mph 3.6 mph 97 % 0 in
16:23 45.3 °F 44.6 °F 29.9 in Calm   3.6 mph 97 % 0 in
16:28 45.3 °F 44.6 °F 29.9 in Calm   3.1 mph 97 % 0 in
16:33 45.3 °F 44.6 °F 29.9 in Calm   2.7 mph 97 % 0 in
16:38 45.1 °F 44.4 °F 29.9 in Calm     97 % 0 in
16:39 45.1 °F 44.4 °F 29.9 in Calm     97 % 0 in
16:44 45.1 °F 44.4 °F 29.9 in WNW 1.6 mph 3.4 mph 97 % 0 in
16:49 45.1 °F 44.4 °F 29.9 in West 2.9 mph 3.4 mph 97 % 0 in
16:54 45.1 °F 44.2 °F 29.9 in West 2.7 mph 4 mph 97 % 0 in
16:59 45.1 °F 44.2 °F 29.9 in Calm   4.9 mph 97 % 0 in
17:04 45.1 °F 44.2 °F 29.9 in West 1.6 mph 4.9 mph 97 % 0 in
17:12 45 °F 44.1 °F 29.9 in West 1.1 mph 3.4 mph 97 % 0 in
17:17 45 °F 44.1 °F 29.9 in Calm   3.4 mph 97 % 0 in
17:18 45 °F 44.1 °F 29.9 in Calm   3.4 mph 97 % 0 in
17:20 45 °F 44.1 °F 29.9 in Calm   1.6 mph 97 % 0 in
17:22 45 °F 44.1 °F 29.9 in WNW 1.3 mph 1.6 mph 97 % 0 in
17:25 44.8 °F 43.9 °F 29.9 in NNE 0.9 mph 2.5 mph 97 % 0 in
17:30 44.8 °F 43.9 °F 29.9 in Calm   2.5 mph 97 % 0 in
17:36 44.8 °F 43.9 °F 29.9 in Calm   2.5 mph 97 % 0 in
17:41 44.4 °F 43.7 °F 29.9 in NW 1.6 mph 3.1 mph 97 % 0 in
17:46 44.4 °F 43.7 °F 29.9 in Calm   3.1 mph 97 % 0 in
17:51 44.4 °F 43.7 °F 29.9 in NNE 2.2 mph 3.6 mph 97 % 0 in
17:56 44.4 °F 43.7 °F 29.9 in North 3.6 mph 3.6 mph 97 % 0 in
18:01 44.4 °F 43.7 °F 29.9 in North 4 mph 5.4 mph 97 % 0 in
18:06 44.4 °F 43.7 °F 29.9 in North 6.5 mph 7.8 mph 97 % 0 in
18:11 44.4 °F 43.7 °F 29.9 in WNW 2.7 mph 7.8 mph 97 % 0 in
18:16 44.2 °F 43.5 °F 29.9 in NNE 3.4 mph 7.2 mph 97 % 0 in
18:21 44.2 °F 43.5 °F 29.9 in North 3.8 mph 6.5 mph 97 % 0 in
18:26 44.2 °F 43.5 °F 29.9 in North 2.7 mph 6.3 mph 97 % 0 in
18:31 44.2 °F 43.5 °F 29.9 in North 3.1 mph 5.4 mph 97 % 0 in
18:36 44.2 °F 43.5 °F 29.9 in NNE 2 mph 5.6 mph 97 % 0 in
18:41 44.2 °F 43.3 °F 29.9 in Calm   5.6 mph 97 % 0 in
18:46 44.2 °F 43.3 °F 29.9 in Calm   3.4 mph 97 % 0 in
18:51 44.1 °F 43.2 °F 29.9 in North 2.5 mph 3.4 mph 97 % 0 in
18:56 44.1 °F 43.2 °F 29.9 in North 1.3 mph 3.6 mph 97 % 0 in
19:02 44.1 °F 43.2 °F 29.9 in Calm   3.6 mph 97 % 0 in
19:07 44.1 °F 43.2 °F 29.9 in Calm   2.7 mph 97 % 0 in
19:12 44.1 °F 43.2 °F 29.9 in Calm   2.7 mph 97 % 0 in
19:17 44.1 °F 43.2 °F 29.9 in Calm   2.5 mph 97 % 0 in
19:22 43.9 °F 43 °F 29.9 in Calm     97 % 0 in
19:27 43.9 °F 43 °F 29.9 in Calm     97 % 0 in
19:32 43.9 °F 43 °F 29.9 in NNE 2.5 mph 2.5 mph 97 % 0 in
19:37 43.9 °F 43 °F 29.9 in Calm   2.5 mph 97 % 0 in
19:42 43.9 °F 43 °F 29.9 in Calm   2.2 mph 97 % 0 in
19:47 43.9 °F 43 °F 29.9 in Calm   2.7 mph 97 % 0 in
19:52 43.9 °F 43 °F 29.9 in Calm   2.7 mph 97 % 0 in
19:57 43.9 °F 43 °F 29.9 in Calm   2.2 mph 97 % 0 in
20:02 43.9 °F 43 °F 29.9 in Calm   2.2 mph 97 % 0 in
20:12 43.5 °F 42.8 °F 29.9 in Calm     97 % 0 in
20:17 43.5 °F 42.6 °F 29.9 in Calm     97 % 0 in
20:22 43.5 °F 42.6 °F 29.9 in Calm     97 % 0 in
20:27 43.5 °F 42.6 °F 29.9 in Calm   2.5 mph 97 % 0 in
20:32 43.5 °F 42.6 °F 29.9 in Calm   2.5 mph 97 % 0 in
20:37 43.5 °F 42.6 °F 29.9 in Calm     97 % 0 in
20:42 43.3 °F 42.4 °F 29.9 in Calm     97 % 0 in
20:47 43.3 °F 42.4 °F 29.9 in Calm     97 % 0 in
20:52 43.3 °F 42.4 °F 29.9 in Calm     97 % 0 in
20:57 43.3 °F 42.4 °F 29.9 in Calm     97 % 0 in
21:02 43.3 °F 42.4 °F 29.9 in Calm   2.2 mph 97 % 0 in
21:07 43.2 °F 42.3 °F 29.9 in ENE 1.1 mph 3.4 mph 97 % 0 in
21:12 43.2 °F 42.3 °F 29.9 in Calm   3.4 mph 97 % 0 in
21:17 43.2 °F 42.3 °F 29.9 in Calm   2.5 mph 97 % 0 in
21:22 43.2 °F 42.3 °F 29.9 in Calm   3.1 mph 97 % 0 in
21:27 43.2 °F 42.3 °F 29.9 in Calm   3.1 mph 97 % 0 in
21:32 43.2 °F 42.3 °F 29.9 in Calm   2.5 mph 97 % 0 in
21:37 43.2 °F 42.3 °F 29.9 in Calm     97 % 0 in
21:42 43.2 °F 42.3 °F 29.9 in Calm   2.7 mph 97 % 0 in
21:47 43 °F 42.1 °F 29.9 in Calm   2.7 mph 97 % 0 in
21:52 43 °F 42.1 °F 29.9 in Calm     97 % 0 in
21:57 43 °F 42.1 °F 29.9 in Calm     97 % 0 in
22:02 43 °F 42.1 °F 29.9 in ENE 4.3 mph 4.3 mph 97 % 0 in
22:07 43 °F 42.1 °F 29.9 in Calm   4.3 mph 97 % 0 in
22:12 42.8 °F 42.1 °F 29.9 in ENE 2.7 mph 4.3 mph 97 % 0 in
22:17 42.8 °F 42.1 °F 29.9 in ENE 2.9 mph 3.8 mph 97 % 0 in
22:22 42.8 °F 42.1 °F 29.9 in East 1.6 mph 3.8 mph 97 % 0 in
22:27 42.8 °F 42.1 °F 29.9 in East 2.9 mph 3.8 mph 97 % 0 in
22:32 42.8 °F 42.1 °F 29.9 in Calm   3.1 mph 97 % 0 in
22:37 42.8 °F 42.1 °F 29.9 in Calm   2.9 mph 97 % 0 in
22:42 42.6 °F 41.7 °F 29.9 in Calm   3.4 mph 97 % 0 in
22:47 42.6 °F 41.7 °F 29.9 in Calm   3.4 mph 97 % 0 in
22:52 42.6 °F 41.7 °F 29.9 in Calm   2.2 mph 97 % 0 in
22:57 42.6 °F 41.7 °F 29.9 in Calm   2.2 mph 97 % 0 in
23:02 42.6 °F 41.7 °F 29.9 in Calm     97 % 0 in
23:07 42.4 °F 41.9 °F 29.9 in Calm   1.1 mph 98 % 0 in
23:12 42.4 °F 41.9 °F 29.9 in Calm   1.1 mph 98 % 0 in
23:17 42.4 °F 41.9 °F 29.9 in Calm     98 % 0 in
23:22 42.3 °F 41.7 °F 29.9 in Calm     98 % 0 in
23:27 42.3 °F 41.7 °F 29.9 in Calm   1.3 mph 98 % 0 in
23:32 42.3 °F 41.7 °F 29.9 in Calm   1.3 mph 98 % 0 in
23:37 42.3 °F 41.7 °F 29.9 in Calm   1.3 mph 98 % 0 in
23:42 42.3 °F 41.7 °F 29.9 in Calm     98 % 0 in
23:47 42.3 °F 41.7 °F 29.9 in Calm     98 % 0 in
23:52 42.3 °F 41.7 °F 29.9 in ENE 3.6 mph 4.9 mph 98 % 0 in
23:57 42.3 °F 41.7 °F 29.9 in ENE 2.9 mph 4.9 mph 98 % 0 in
Le Gheer Warneton
Courtoisie de Weather Underground - 2.5 mb

Mise a jour : 18/12/2017 17:30:12
Généré par Cumulus 1.9.4 (1099)